sensor_id;sensor_type;location;lat;lon;timestamp;pressure;altitude;pressure_sealevel;temperature;humidity
8575;BME280;4325;42.520;27.448;2023-02-14T00:02:15;102676.09;;;-0.25;83.22
8575;BME280;4325;42.520;27.448;2023-02-14T00:04:42;102669.69;;;-0.41;83.76
8575;BME280;4325;42.520;27.448;2023-02-14T00:07:11;102669.06;;;-0.53;84.45
8575;BME280;4325;42.520;27.448;2023-02-14T00:09:38;102675.06;;;-0.59;85.38
8575;BME280;4325;42.520;27.448;2023-02-14T00:12:05;102672.28;;;-0.67;85.58
8575;BME280;4325;42.520;27.448;2023-02-14T00:14:33;102679.56;;;-0.77;85.45
8575;BME280;4325;42.520;27.448;2023-02-14T00:17:18;102684.47;;;-0.90;85.89
8575;BME280;4325;42.520;27.448;2023-02-14T00:19:45;102679.53;;;-1.04;87.11
8575;BME280;4325;42.520;27.448;2023-02-14T00:22:11;102683.81;;;-1.11;88.51
8575;BME280;4325;42.520;27.448;2023-02-14T00:24:38;102679.06;;;-1.17;89.84
8575;BME280;4325;42.520;27.448;2023-02-14T00:27:05;102684.72;;;-1.20;93.08
8575;BME280;4325;42.520;27.448;2023-02-14T00:29:33;102685.88;;;-1.23;95.89
8575;BME280;4325;42.520;27.448;2023-02-14T00:32:01;102679.91;;;-1.26;97.97
8575;BME280;4325;42.520;27.448;2023-02-14T00:34:27;102685.28;;;-1.26;99.71
8575;BME280;4325;42.520;27.448;2023-02-14T00:36:54;102674.88;;;-1.29;100.00
8575;BME280;4325;42.520;27.448;2023-02-14T00:39:21;102672.41;;;-1.23;100.00
8575;BME280;4325;42.520;27.448;2023-02-14T00:41:48;102671.69;;;-1.15;100.00
8575;BME280;4325;42.520;27.448;2023-02-14T00:44:15;102666.44;;;-1.07;100.00
8575;BME280;4325;42.520;27.448;2023-02-14T00:46:43;102659.00;;;-0.96;100.00
8575;BME280;4325;42.520;27.448;2023-02-14T00:49:10;102667.59;;;-0.92;100.00
8575;BME280;4325;42.520;27.448;2023-02-14T00:51:37;102658.00;;;-0.95;100.00
8575;BME280;4325;42.520;27.448;2023-02-14T00:54:04;102658.56;;;-0.91;100.00
8575;BME280;4325;42.520;27.448;2023-02-14T00:56:31;102662.22;;;-0.92;100.00
8575;BME280;4325;42.520;27.448;2023-02-14T00:58:58;102648.09;;;-0.94;100.00
8575;BME280;4325;42.520;27.448;2023-02-14T01:01:25;102650.19;;;-0.88;100.00
8575;BME280;4325;42.520;27.448;2023-02-14T01:03:53;102645.50;;;-0.86;100.00
8575;BME280;4325;42.520;27.448;2023-02-14T01:06:20;102645.22;;;-0.83;100.00
8575;BME280;4325;42.520;27.448;2023-02-14T01:08:47;102635.66;;;-0.78;100.00
8575;BME280;4325;42.520;27.448;2023-02-14T01:11:16;102637.53;;;-0.78;100.00
8575;BME280;4325;42.520;27.448;2023-02-14T01:13:44;102638.91;;;-0.74;100.00
8575;BME280;4325;42.520;27.448;2023-02-14T01:16:13;102632.56;;;-0.73;100.00
8575;BME280;4325;42.520;27.448;2023-02-14T01:18:41;102634.91;;;-0.70;100.00
8575;BME280;4325;42.520;27.448;2023-02-14T01:21:11;102618.78;;;-0.70;100.00
8575;BME280;4325;42.520;27.448;2023-02-14T01:23:38;102606.00;;;-0.68;100.00
8575;BME280;4325;42.520;27.448;2023-02-14T01:26:06;102604.34;;;-0.69;100.00
8575;BME280;4325;42.520;27.448;2023-02-14T01:28:33;102598.66;;;-0.66;100.00
8575;BME280;4325;42.520;27.448;2023-02-14T01:31:08;102591.88;;;-0.70;100.00
8575;BME280;4325;42.520;27.448;2023-02-14T01:33:35;102587.66;;;-0.73;100.00
8575;BME280;4325;42.520;27.448;2023-02-14T01:36:03;102585.13;;;-0.74;100.00
8575;BME280;4325;42.520;27.448;2023-02-14T01:38:31;102571.59;;;-0.82;100.00
8575;BME280;4325;42.520;27.448;2023-02-14T01:40:58;102581.75;;;-0.76;100.00
8575;BME280;4325;42.520;27.448;2023-02-14T01:43:25;102578.38;;;-0.78;100.00
8575;BME280;4325;42.520;27.448;2023-02-14T01:45:52;102571.88;;;-0.85;100.00
8575;BME280;4325;42.520;27.448;2023-02-14T01:48:20;102561.13;;;-0.85;100.00
8575;BME280;4325;42.520;27.448;2023-02-14T01:50:49;102570.50;;;-0.89;100.00
8575;BME280;4325;42.520;27.448;2023-02-14T01:53:21;102557.06;;;-0.89;100.00
8575;BME280;4325;42.520;27.448;2023-02-14T01:55:57;102548.69;;;-0.86;100.00
8575;BME280;4325;42.520;27.448;2023-02-14T01:58:28;102551.22;;;-0.85;100.00
8575;BME280;4325;42.520;27.448;2023-02-14T02:00:59;102549.22;;;-0.83;100.00
8575;BME280;4325;42.520;27.448;2023-02-14T02:03:28;102551.09;;;-0.83;100.00
8575;BME280;4325;42.520;27.448;2023-02-14T02:06:01;102552.56;;;-0.71;100.00
8575;BME280;4325;42.520;27.448;2023-02-14T02:08:29;102554.78;;;-0.67;99.09
8575;BME280;4325;42.520;27.448;2023-02-14T02:10:57;102552.78;;;-0.64;98.36
8575;BME280;4325;42.520;27.448;2023-02-14T02:13:24;102550.25;;;-0.66;98.44
8575;BME280;4325;42.520;27.448;2023-02-14T02:16:01;102551.31;;;-0.59;97.60
8575;BME280;4325;42.520;27.448;2023-02-14T02:18:41;102545.00;;;-0.50;97.31
8575;BME280;4325;42.520;27.448;2023-02-14T02:24:21;102533.00;;;-0.55;96.55
8575;BME280;4325;42.520;27.448;2023-02-14T02:27:18;102540.97;;;-0.46;96.05
8575;BME280;4325;42.520;27.448;2023-02-14T02:33:18;102543.44;;;-0.35;95.96
8575;BME280;4325;42.520;27.448;2023-02-14T02:36:07;102546.81;;;-0.33;95.58
8575;BME280;4325;42.520;27.448;2023-02-14T02:38:49;102554.41;;;-0.28;95.80
8575;BME280;4325;42.520;27.448;2023-02-14T02:41:28;102549.25;;;-0.22;95.92
8575;BME280;4325;42.520;27.448;2023-02-14T02:44:06;102556.41;;;-0.13;96.37
8575;BME280;4325;42.520;27.448;2023-02-14T02:46:39;102544.00;;;-0.06;96.19
8575;BME280;4325;42.520;27.448;2023-02-14T02:49:27;102548.72;;;0.00;94.88
8575;BME280;4325;42.520;27.448;2023-02-14T02:52:21;102535.88;;;0.12;94.53
8575;BME280;4325;42.520;27.448;2023-02-14T02:55:13;102530.38;;;0.22;93.79
8575;BME280;4325;42.520;27.448;2023-02-14T02:57:42;102532.41;;;0.28;92.37
8575;BME280;4325;42.520;27.448;2023-02-14T03:00:12;102529.38;;;0.31;91.64
8575;BME280;4325;42.520;27.448;2023-02-14T03:02:44;102534.47;;;0.34;91.51
8575;BME280;4325;42.520;27.448;2023-02-14T03:05:31;102521.97;;;0.33;91.41
8575;BME280;4325;42.520;27.448;2023-02-14T03:08:01;102521.97;;;0.33;91.31
8575;BME280;4325;42.520;27.448;2023-02-14T03:10:32;102516.59;;;0.33;91.02
8575;BME280;4325;42.520;27.448;2023-02-14T03:13:21;102510.78;;;0.20;90.39
8575;BME280;4325;42.520;27.448;2023-02-14T03:15:56;102513.47;;;0.12;90.62
8575;BME280;4325;42.520;27.448;2023-02-14T03:18:37;102504.38;;;0.13;90.31
8575;BME280;4325;42.520;27.448;2023-02-14T03:21:15;102506.59;;;-0.09;90.25
8575;BME280;4325;42.520;27.448;2023-02-14T03:23:49;102498.47;;;-0.17;91.32
8575;BME280;4325;42.520;27.448;2023-02-14T03:26:23;102490.88;;;-0.21;92.67
8575;BME280;4325;42.520;27.448;2023-02-14T03:28:57;102489.22;;;-0.22;92.68
8575;BME280;4325;42.520;27.448;2023-02-14T03:31:29;102488.88;;;-0.45;92.22
8575;BME280;4325;42.520;27.448;2023-02-14T03:34:06;102493.59;;;-0.64;93.49
8575;BME280;4325;42.520;27.448;2023-02-14T03:36:39;102495.13;;;-0.80;93.97
8575;BME280;4325;42.520;27.448;2023-02-14T03:39:12;102490.16;;;-0.92;97.28
8575;BME280;4325;42.520;27.448;2023-02-14T03:41:46;102488.09;;;-0.98;99.24
8575;BME280;4325;42.520;27.448;2023-02-14T03:44:18;102487.06;;;-0.97;99.63
8575;BME280;4325;42.520;27.448;2023-02-14T03:46:50;102495.09;;;-1.05;100.00
8575;BME280;4325;42.520;27.448;2023-02-14T03:49:22;102475.56;;;-1.07;100.00
8575;BME280;4325;42.520;27.448;2023-02-14T03:51:53;102468.19;;;-1.05;100.00
8575;BME280;4325;42.520;27.448;2023-02-14T03:54:24;102461.41;;;-1.09;100.00
8575;BME280;4325;42.520;27.448;2023-02-14T03:56:56;102462.56;;;-1.12;100.00
8575;BME280;4325;42.520;27.448;2023-02-14T03:59:27;102461.88;;;-1.14;100.00
8575;BME280;4325;42.520;27.448;2023-02-14T04:02:00;102460.06;;;-1.13;100.00
8575;BME280;4325;42.520;27.448;2023-02-14T04:04:32;102441.69;;;-1.18;100.00
8575;BME280;4325;42.520;27.448;2023-02-14T04:07:08;102439.00;;;-1.18;100.00
8575;BME280;4325;42.520;27.448;2023-02-14T04:09:36;102435.47;;;-1.18;100.00
8575;BME280;4325;42.520;27.448;2023-02-14T04:12:03;102431.81;;;-1.17;100.00
8575;BME280;4325;42.520;27.448;2023-02-14T04:14:30;102432.09;;;-1.20;100.00
8575;BME280;4325;42.520;27.448;2023-02-14T04:16:57;102439.47;;;-1.22;100.00
8575;BME280;4325;42.520;27.448;2023-02-14T04:19:41;102439.63;;;-1.24;100.00
8575;BME280;4325;42.520;27.448;2023-02-14T04:22:08;102434.63;;;-1.19;100.00
8575;BME280;4325;42.520;27.448;2023-02-14T04:24:36;102426.72;;;-1.20;100.00
8575;BME280;4325;42.520;27.448;2023-02-14T04:27:03;102428.09;;;-1.16;100.00
8575;BME280;4325;42.520;27.448;2023-02-14T04:29:37;102429.81;;;-1.15;100.00
8575;BME280;4325;42.520;27.448;2023-02-14T04:32:06;102424.13;;;-1.12;100.00
8575;BME280;4325;42.520;27.448;2023-02-14T04:34:33;102430.88;;;-1.08;100.00
8575;BME280;4325;42.520;27.448;2023-02-14T04:37:00;102419.28;;;-1.09;100.00
8575;BME280;4325;42.520;27.448;2023-02-14T04:39:27;102416.13;;;-1.04;100.00
8575;BME280;4325;42.520;27.448;2023-02-14T04:41:56;102426.88;;;-1.04;100.00
8575;BME280;4325;42.520;27.448;2023-02-14T04:44:23;102424.34;;;-1.06;100.00
8575;BME280;4325;42.520;27.448;2023-02-14T04:46:50;102435.09;;;-1.06;100.00
8575;BME280;4325;42.520;27.448;2023-02-14T04:49:17;102430.88;;;-1.08;100.00
8575;BME280;4325;42.520;27.448;2023-02-14T04:51:44;102432.88;;;-1.10;100.00
8575;BME280;4325;42.520;27.448;2023-02-14T04:54:11;102413.97;;;-1.18;100.00
8575;BME280;4325;42.520;27.448;2023-02-14T04:56:38;102413.84;;;-1.17;100.00
8575;BME280;4325;42.520;27.448;2023-02-14T04:59:06;102414.19;;;-1.12;100.00
8575;BME280;4325;42.520;27.448;2023-02-14T05:01:33;102414.75;;;-1.08;100.00
8575;BME280;4325;42.520;27.448;2023-02-14T05:04:00;102421.50;;;-1.04;100.00
8575;BME280;4325;42.520;27.448;2023-02-14T05:06:27;102416.44;;;-1.07;100.00
8575;BME280;4325;42.520;27.448;2023-02-14T05:08:54;102436.38;;;-0.92;100.00
8575;BME280;4325;42.520;27.448;2023-02-14T05:11:21;102432.91;;;-0.85;100.00
8575;BME280;4325;42.520;27.448;2023-02-14T05:13:48;102426.25;;;-0.81;100.00
8575;BME280;4325;42.520;27.448;2023-02-14T05:16:16;102423.38;;;-0.79;100.00
8575;BME280;4325;42.520;27.448;2023-02-14T05:18:43;102436.56;;;-0.68;100.00
8575;BME280;4325;42.520;27.448;2023-02-14T05:21:10;102430.09;;;-0.57;100.00
8575;BME280;4325;42.520;27.448;2023-02-14T05:23:37;102436.06;;;-0.46;100.00
8575;BME280;4325;42.520;27.448;2023-02-14T05:26:04;102442.84;;;-0.34;100.00
8575;BME280;4325;42.520;27.448;2023-02-14T05:28:31;102448.66;;;-0.21;100.00
8575;BME280;4325;42.520;27.448;2023-02-14T05:30:58;102456.66;;;-0.03;100.00
8575;BME280;4325;42.520;27.448;2023-02-14T05:33:27;102453.88;;;0.15;100.00
8575;BME280;4325;42.520;27.448;2023-02-14T05:35:54;102451.63;;;0.36;100.00
8575;BME280;4325;42.520;27.448;2023-02-14T05:38:20;102444.75;;;0.49;99.83
8575;BME280;4325;42.520;27.448;2023-02-14T05:40:47;102457.44;;;0.65;99.59
8575;BME280;4325;42.520;27.448;2023-02-14T05:43:14;102449.38;;;0.81;98.60
8575;BME280;4325;42.520;27.448;2023-02-14T05:45:41;102444.31;;;1.02;98.40
8575;BME280;4325;42.520;27.448;2023-02-14T05:48:08;102457.16;;;1.16;97.22
8575;BME280;4325;42.520;27.448;2023-02-14T05:50:36;102462.88;;;1.38;99.43
8575;BME280;4325;42.520;27.448;2023-02-14T05:53:03;102459.00;;;1.48;98.08
8575;BME280;4325;42.520;27.448;2023-02-14T05:55:30;102459.81;;;1.57;95.62
8575;BME280;4325;42.520;27.448;2023-02-14T05:57:57;102455.09;;;1.67;94.26
8575;BME280;4325;42.520;27.448;2023-02-14T06:00:24;102464.19;;;1.74;93.08
8575;BME280;4325;42.520;27.448;2023-02-14T06:02:50;102458.25;;;1.78;91.90
8575;BME280;4325;42.520;27.448;2023-02-14T06:05:17;102459.44;;;1.84;91.58
8575;BME280;4325;42.520;27.448;2023-02-14T06:07:47;102447.97;;;1.82;91.67
8575;BME280;4325;42.520;27.448;2023-02-14T06:10:16;102463.81;;;1.93;90.40
8575;BME280;4325;42.520;27.448;2023-02-14T06:12:43;102465.88;;;1.75;89.43
8575;BME280;4325;42.520;27.448;2023-02-14T06:15:10;102451.53;;;1.66;90.58
8575;BME280;4325;42.520;27.448;2023-02-14T06:17:37;102467.53;;;1.84;90.03
8575;BME280;4325;42.520;27.448;2023-02-14T06:20:05;102465.19;;;1.89;88.84
8575;BME280;4325;42.520;27.448;2023-02-14T06:22:34;102458.06;;;1.88;88.18
8575;BME280;4325;42.520;27.448;2023-02-14T06:25:03;102452.00;;;1.94;88.39
8575;BME280;4325;42.520;27.448;2023-02-14T06:27:31;102459.03;;;2.03;87.45
8575;BME280;4325;42.520;27.448;2023-02-14T06:29:58;102446.72;;;2.00;86.66
8575;BME280;4325;42.520;27.448;2023-02-14T06:32:25;102466.50;;;1.93;87.41
8575;BME280;4325;42.520;27.448;2023-02-14T06:34:52;102455.91;;;1.83;88.40
8575;BME280;4325;42.520;27.448;2023-02-14T06:37:19;102457.94;;;1.73;89.61
8575;BME280;4325;42.520;27.448;2023-02-14T06:39:46;102441.91;;;1.80;90.55
8575;BME280;4325;42.520;27.448;2023-02-14T06:42:14;102443.22;;;1.92;91.33
8575;BME280;4325;42.520;27.448;2023-02-14T06:44:42;102449.22;;;2.18;91.20
8575;BME280;4325;42.520;27.448;2023-02-14T06:47:09;102449.53;;;2.85;89.63
8575;BME280;4325;42.520;27.448;2023-02-14T06:49:36;102447.47;;;3.98;85.55
8575;BME280;4325;42.520;27.448;2023-02-14T06:52:04;102446.78;;;5.18;75.89
8575;BME280;4325;42.520;27.448;2023-02-14T06:54:31;102444.16;;;5.74;66.91
8575;BME280;4325;42.520;27.448;2023-02-14T06:56:58;102443.44;;;6.27;62.93
8575;BME280;4325;42.520;27.448;2023-02-14T06:59:27;102431.50;;;6.89;57.70
8575;BME280;4325;42.520;27.448;2023-02-14T07:01:54;102440.59;;;8.58;52.59
8575;BME280;4325;42.520;27.448;2023-02-14T07:04:21;102438.91;;;10.00;45.89
8575;BME280;4325;42.520;27.448;2023-02-14T07:06:47;102438.19;;;11.07;43.47
8575;BME280;4325;42.520;27.448;2023-02-14T07:09:14;102441.03;;;12.74;39.29
8575;BME280;4325;42.520;27.448;2023-02-14T07:11:42;102433.06;;;12.73;36.67
8575;BME280;4325;42.520;27.448;2023-02-14T07:14:10;102425.50;;;13.08;36.71
8575;BME280;4325;42.520;27.448;2023-02-14T07:16:38;102434.44;;;14.36;34.68
8575;BME280;4325;42.520;27.448;2023-02-14T07:19:05;102433.03;;;14.55;33.58
8575;BME280;4325;42.520;27.448;2023-02-14T07:21:32;102430.44;;;13.56;33.98
8575;BME280;4325;42.520;27.448;2023-02-14T07:23:59;102432.13;;;12.16;38.34
8575;BME280;4325;42.520;27.448;2023-02-14T07:26:26;102423.28;;;11.90;36.77
8575;BME280;4325;42.520;27.448;2023-02-14T07:28:53;102425.81;;;12.55;36.07
8575;BME280;4325;42.520;27.448;2023-02-14T07:31:19;102429.94;;;12.69;35.66
8575;BME280;4325;42.520;27.448;2023-02-14T07:33:49;102443.09;;;11.92;37.20
8575;BME280;4325;42.520;27.448;2023-02-14T07:36:16;102431.63;;;12.98;35.87
8575;BME280;4325;42.520;27.448;2023-02-14T07:38:43;102425.91;;;14.00;34.29
8575;BME280;4325;42.520;27.448;2023-02-14T07:41:10;102434.44;;;15.33;32.47
8575;BME280;4325;42.520;27.448;2023-02-14T07:43:37;102440.66;;;16.24;30.89
8575;BME280;4325;42.520;27.448;2023-02-14T07:46:04;102433.34;;;13.99;32.66
8575;BME280;4325;42.520;27.448;2023-02-14T07:48:31;102435.09;;;13.22;33.92
8575;BME280;4325;42.520;27.448;2023-02-14T07:51:00;102424.94;;;12.94;34.54
8575;BME280;4325;42.520;27.448;2023-02-14T07:53:27;102433.13;;;13.34;34.34
8575;BME280;4325;42.520;27.448;2023-02-14T07:55:54;102431.69;;;13.15;34.61
8575;BME280;4325;42.520;27.448;2023-02-14T07:58:21;102430.97;;;13.53;34.33
8575;BME280;4325;42.520;27.448;2023-02-14T08:00:47;102431.50;;;14.05;33.77
8575;BME280;4325;42.520;27.448;2023-02-14T08:03:15;102415.25;;;14.68;32.73
8575;BME280;4325;42.520;27.448;2023-02-14T08:05:42;102416.97;;;14.96;32.59
8575;BME280;4325;42.520;27.448;2023-02-14T08:08:11;102420.91;;;15.63;31.20
8575;BME280;4325;42.520;27.448;2023-02-14T08:10:37;102425.28;;;15.28;31.82
8575;BME280;4325;42.520;27.448;2023-02-14T08:13:04;102417.63;;;15.08;32.07
8575;BME280;4325;42.520;27.448;2023-02-14T08:15:31;102421.13;;;15.94;31.20
8575;BME280;4325;42.520;27.448;2023-02-14T08:18:17;102413.63;;;16.36;30.58
8575;BME280;4325;42.520;27.448;2023-02-14T08:20:44;102401.72;;;17.78;29.00
8575;BME280;4325;42.520;27.448;2023-02-14T08:23:14;102404.41;;;20.17;26.81
8575;BME280;4325;42.520;27.448;2023-02-14T08:25:42;102412.78;;;21.21;24.88
8575;BME280;4325;42.520;27.448;2023-02-14T08:28:08;102402.00;;;21.65;24.31
8575;BME280;4325;42.520;27.448;2023-02-14T08:30:36;102390.78;;;23.50;23.01
8575;BME280;4325;42.520;27.448;2023-02-14T08:33:03;102396.13;;;24.78;21.50
8575;BME280;4325;42.520;27.448;2023-02-14T08:35:30;102375.94;;;26.84;20.64
8575;BME280;4325;42.520;27.448;2023-02-14T08:37:57;102380.72;;;27.25;18.94
8575;BME280;4325;42.520;27.448;2023-02-14T08:40:25;102383.94;;;26.06;19.89
8575;BME280;4325;42.520;27.448;2023-02-14T08:42:52;102385.31;;;24.46;20.61
8575;BME280;4325;42.520;27.448;2023-02-14T08:45:19;102381.97;;;23.21;21.48
8575;BME280;4325;42.520;27.448;2023-02-14T08:47:46;102385.66;;;23.75;22.26
8575;BME280;4325;42.520;27.448;2023-02-14T08:50:15;102373.50;;;26.07;20.70
8575;BME280;4325;42.520;27.448;2023-02-14T08:52:43;102368.16;;;27.22;19.31
8575;BME280;4325;42.520;27.448;2023-02-14T08:55:10;102356.56;;;26.82;18.79
8575;BME280;4325;42.520;27.448;2023-02-14T08:57:39;102368.66;;;25.87;19.69
8575;BME280;4325;42.520;27.448;2023-02-14T09:00:07;102358.03;;;23.82;20.87
8575;BME280;4325;42.520;27.448;2023-02-14T09:02:34;102352.41;;;23.73;21.69
8575;BME280;4325;42.520;27.448;2023-02-14T09:05:02;102359.19;;;25.02;20.20
8575;BME280;4325;42.520;27.448;2023-02-14T09:07:29;102355.66;;;23.67;21.81
8575;BME280;4325;42.520;27.448;2023-02-14T09:09:56;102356.66;;;23.71;21.64
8575;BME280;4325;42.520;27.448;2023-02-14T09:12:23;102346.97;;;24.72;20.91
8575;BME280;4325;42.520;27.448;2023-02-14T09:14:51;102333.97;;;25.28;20.31
8575;BME280;4325;42.520;27.448;2023-02-14T09:17:18;102335.25;;;24.70;20.36
8575;BME280;4325;42.520;27.448;2023-02-14T09:19:46;102338.03;;;23.35;22.32
8575;BME280;4325;42.520;27.448;2023-02-14T09:22:12;102337.81;;;24.24;21.92
8575;BME280;4325;42.520;27.448;2023-02-14T09:24:39;102314.28;;;25.62;21.21
8575;BME280;4325;42.520;27.448;2023-02-14T09:27:07;102320.06;;;26.33;20.00
8575;BME280;4325;42.520;27.448;2023-02-14T09:29:35;102316.94;;;26.55;19.79
8575;BME280;4325;42.520;27.448;2023-02-14T09:32:03;102311.81;;;27.64;18.92
8575;BME280;4325;42.520;27.448;2023-02-14T09:34:32;102307.69;;;27.28;18.95
8575;BME280;4325;42.520;27.448;2023-02-14T09:36:59;102309.81;;;26.78;19.43
8575;BME280;4325;42.520;27.448;2023-02-14T09:39:44;102302.38;;;29.67;18.22
8575;BME280;4325;42.520;27.448;2023-02-14T09:42:32;102299.97;;;32.97;16.20
8575;BME280;4325;42.520;27.448;2023-02-14T09:45:04;102290.78;;;33.84;14.69
8575;BME280;4325;42.520;27.448;2023-02-14T09:47:40;102283.69;;;33.60;14.38
8575;BME280;4325;42.520;27.448;2023-02-14T09:50:16;102281.34;;;34.92;14.55
8575;BME280;4325;42.520;27.448;2023-02-14T09:52:46;102268.25;;;34.70;14.83
8575;BME280;4325;42.520;27.448;2023-02-14T09:55:16;102272.16;;;36.01;13.94
8575;BME280;4325;42.520;27.448;2023-02-14T09:57:54;102268.44;;;36.25;13.45
8575;BME280;4325;42.520;27.448;2023-02-14T10:00:31;102264.41;;;36.12;12.71
8575;BME280;4325;42.520;27.448;2023-02-14T10:03:41;102257.09;;;36.01;12.41
8575;BME280;4325;42.520;27.448;2023-02-14T10:06:25;102262.72;;;35.30;12.39
8575;BME280;4325;42.520;27.448;2023-02-14T10:09:04;102264.78;;;33.42;12.90
8575;BME280;4325;42.520;27.448;2023-02-14T10:11:34;102256.91;;;33.21;13.49
8575;BME280;4325;42.520;27.448;2023-02-14T10:14:04;102257.50;;;33.41;13.16
8575;BME280;4325;42.520;27.448;2023-02-14T10:16:38;102257.38;;;32.93;13.88
8575;BME280;4325;42.520;27.448;2023-02-14T10:19:14;102251.41;;;32.42;13.79
8575;BME280;4325;42.520;27.448;2023-02-14T10:21:46;102242.75;;;32.02;14.17
8575;BME280;4325;42.520;27.448;2023-02-14T10:24:17;102240.41;;;33.37;13.67
8575;BME280;4325;42.520;27.448;2023-02-14T10:26:46;102236.38;;;34.47;13.11
8575;BME280;4325;42.520;27.448;2023-02-14T10:29:16;102233.34;;;34.94;16.13
8575;BME280;4325;42.520;27.448;2023-02-14T10:31:46;102220.00;;;35.83;15.31
8575;BME280;4325;42.520;27.448;2023-02-14T10:34:25;102208.81;;;36.66;13.50
8575;BME280;4325;42.520;27.448;2023-02-14T10:37:02;102220.94;;;36.84;12.56
8575;BME280;4325;42.520;27.448;2023-02-14T10:39:46;102213.13;;;37.57;12.30
8575;BME280;4325;42.520;27.448;2023-02-14T10:42:24;102212.75;;;36.93;12.09
8575;BME280;4325;42.520;27.448;2023-02-14T10:44:56;102213.50;;;36.00;13.09
8575;BME280;4325;42.520;27.448;2023-02-14T10:47:35;102218.03;;;36.95;12.48
8575;BME280;4325;42.520;27.448;2023-02-14T10:50:15;102203.03;;;37.42;12.31
8575;BME280;4325;42.520;27.448;2023-02-14T10:52:49;102206.16;;;38.03;11.82
8575;BME280;4325;42.520;27.448;2023-02-14T10:55:25;102201.56;;;37.68;11.65
8575;BME280;4325;42.520;27.448;2023-02-14T10:57:55;102207.66;;;38.14;11.96
8575;BME280;4325;42.520;27.448;2023-02-14T11:00:25;102200.75;;;36.47;11.91
8575;BME280;4325;42.520;27.448;2023-02-14T11:02:56;102199.78;;;36.75;12.16
8575;BME280;4325;42.520;27.448;2023-02-14T11:05:28;102202.69;;;37.30;11.77
8575;BME280;4325;42.520;27.448;2023-02-14T11:07:56;102187.28;;;36.48;12.54
8575;BME280;4325;42.520;27.448;2023-02-14T11:10:26;102186.50;;;37.16;12.15
8575;BME280;4325;42.520;27.448;2023-02-14T11:12:55;102181.59;;;37.64;11.66
8575;BME280;4325;42.520;27.448;2023-02-14T11:15:25;102186.63;;;36.95;11.21
8575;BME280;4325;42.520;27.448;2023-02-14T11:18:08;102174.03;;;35.74;12.00
8575;BME280;4325;42.520;27.448;2023-02-14T11:20:40;102165.91;;;35.41;12.02
8575;BME280;4325;42.520;27.448;2023-02-14T11:23:17;102170.63;;;34.59;12.74
8575;BME280;4325;42.520;27.448;2023-02-14T11:25:49;102168.56;;;34.56;13.20
8575;BME280;4325;42.520;27.448;2023-02-14T11:28:18;102169.16;;;35.64;12.23
8575;BME280;4325;42.520;27.448;2023-02-14T11:30:46;102162.09;;;36.28;12.27
8575;BME280;4325;42.520;27.448;2023-02-14T11:33:25;102152.81;;;35.89;12.51
8575;BME280;4325;42.520;27.448;2023-02-14T11:35:56;102155.56;;;36.28;11.99
8575;BME280;4325;42.520;27.448;2023-02-14T11:38:27;102156.25;;;36.60;12.11
8575;BME280;4325;42.520;27.448;2023-02-14T11:40:56;102147.25;;;36.62;12.25
8575;BME280;4325;42.520;27.448;2023-02-14T11:43:31;102147.75;;;36.42;12.20
8575;BME280;4325;42.520;27.448;2023-02-14T11:46:23;102141.94;;;36.64;12.08
8575;BME280;4325;42.520;27.448;2023-02-14T11:48:56;102149.78;;;38.00;11.25
8575;BME280;4325;42.520;27.448;2023-02-14T11:51:30;102144.94;;;37.97;10.94
8575;BME280;4325;42.520;27.448;2023-02-14T11:54:00;102139.38;;;38.50;11.27
8575;BME280;4325;42.520;27.448;2023-02-14T11:56:47;102124.00;;;38.94;10.98
8575;BME280;4325;42.520;27.448;2023-02-14T11:59:24;102138.50;;;39.07;10.30
8575;BME280;4325;42.520;27.448;2023-02-14T12:01:53;102123.91;;;38.74;10.47
8575;BME280;4325;42.520;27.448;2023-02-14T12:04:28;102126.84;;;39.21;10.28
8575;BME280;4325;42.520;27.448;2023-02-14T12:07:14;102119.38;;;38.77;10.73
8575;BME280;4325;42.520;27.448;2023-02-14T12:09:42;102119.16;;;39.61;10.18
8575;BME280;4325;42.520;27.448;2023-02-14T12:12:16;102127.00;;;40.19;10.27
8575;BME280;4325;42.520;27.448;2023-02-14T12:14:43;102123.34;;;40.18;9.94
8575;BME280;4325;42.520;27.448;2023-02-14T12:17:22;102127.81;;;40.75;10.00
8575;BME280;4325;42.520;27.448;2023-02-14T12:19:54;102138.59;;;40.71;9.44
8575;BME280;4325;42.520;27.448;2023-02-14T12:22:30;102138.06;;;39.35;12.25
8575;BME280;4325;42.520;27.448;2023-02-14T12:25:04;102145.66;;;39.45;13.43
8575;BME280;4325;42.520;27.448;2023-02-14T12:27:42;102126.97;;;39.37;11.84
8575;BME280;4325;42.520;27.448;2023-02-14T12:30:15;102128.19;;;39.36;11.70
8575;BME280;4325;42.520;27.448;2023-02-14T12:32:46;102134.13;;;40.31;11.19
8575;BME280;4325;42.520;27.448;2023-02-14T12:35:16;102136.72;;;40.80;10.55
8575;BME280;4325;42.520;27.448;2023-02-14T12:37:58;102125.97;;;41.17;10.77
8575;BME280;4325;42.520;27.448;2023-02-14T12:40:37;102114.69;;;40.58;9.44
8575;BME280;4325;42.520;27.448;2023-02-14T12:43:31;102119.53;;;39.63;10.88
8575;BME280;4325;42.520;27.448;2023-02-14T12:46:14;102116.97;;;39.68;10.93
8575;BME280;4325;42.520;27.448;2023-02-14T12:48:58;102123.88;;;39.01;10.88
8575;BME280;4325;42.520;27.448;2023-02-14T12:51:30;102121.41;;;37.79;12.28
8575;BME280;4325;42.520;27.448;2023-02-14T12:54:10;102123.13;;;34.91;12.46
8575;BME280;4325;42.520;27.448;2023-02-14T12:56:51;102121.56;;;31.66;14.40
8575;BME280;4325;42.520;27.448;2023-02-14T12:59:27;102132.94;;;28.30;16.24
8575;BME280;4325;42.520;27.448;2023-02-14T13:05:00;102129.63;;;24.71;19.58
8575;BME280;4325;42.520;27.448;2023-02-14T13:07:45;102133.72;;;24.74;19.94
8575;BME280;4325;42.520;27.448;2023-02-14T13:10:25;102125.00;;;27.44;18.27
8575;BME280;4325;42.520;27.448;2023-02-14T13:13:01;102113.22;;;30.21;16.45
8575;BME280;4325;42.520;27.448;2023-02-14T13:15:37;102110.38;;;32.36;14.95
8575;BME280;4325;42.520;27.448;2023-02-14T13:18:15;102106.56;;;33.42;13.01
8575;BME280;4325;42.520;27.448;2023-02-14T13:20:50;102100.69;;;34.51;13.68
8575;BME280;4325;42.520;27.448;2023-02-14T13:23:23;102101.97;;;35.70;12.72
8575;BME280;4325;42.520;27.448;2023-02-14T13:25:58;102112.78;;;36.24;12.28
8575;BME280;4325;42.520;27.448;2023-02-14T13:28:26;102085.25;;;35.72;12.15
8575;BME280;4325;42.520;27.448;2023-02-14T13:30:55;102092.09;;;34.37;12.67